Time;durP1;ratioP1;P1;durP2;ratioP2;P2;SDS_P1;SDS_P2;PMS_P1;PMS_P2;Temp;Humidity;BMP_temperature;BMP_pressure;BME280_temperature;BME280_humidity;BME280_pressure;Samples;Min_cycle;Max_cycle;Signal;HPM_P1;HPM_P2
2021/03/09 00:01:04;;;;;;;45.07;20.20;;;;;;;-2.03;55.78;99399.45;124255;1105;104178;-69
2021/03/09 00:03:31;;;;;;;42.93;18.80;;;;;;;-2.01;56.18;99400.28;124178;1105;104197;-69
2021/03/09 00:06:00;;;;;;;49.30;19.53;;;;;;;-1.99;54.71;99403.73;124588;1105;104191;-69
2021/03/09 00:08:26;;;;;;;46.10;19.23;;;;;;;-1.94;56.27;99404.52;124261;1105;104230;-71
2021/03/09 00:10:54;;;;;;;52.43;20.40;;;;;;;-1.92;55.94;99407.09;124202;1105;104705;-70
2021/03/09 00:13:20;;;;;;;46.87;19.80;;;;;;;-1.94;55.96;99401.91;124206;1105;104251;-70
2021/03/09 00:15:48;;;;;;;42.93;17.93;;;;;;;-1.97;55.11;99408.02;124166;1105;104252;-70
2021/03/09 00:18:15;;;;;;;49.20;21.63;;;;;;;-1.98;56.43;99406.30;124886;1105;104338;-69
2021/03/09 00:20:42;;;;;;;53.10;21.47;;;;;;;-1.94;55.62;99399.30;124383;1105;104152;-71
2021/03/09 00:23:09;;;;;;;45.80;20.57;;;;;;;-1.96;55.49;99393.25;124258;1105;104297;-70
2021/03/09 00:25:36;;;;;;;49.93;22.43;;;;;;;-1.97;55.92;99394.98;124162;1105;104207;-69
2021/03/09 00:28:03;;;;;;;50.47;21.43;;;;;;;-1.93;55.38;99397.55;124288;1105;104181;-69
2021/03/09 00:30:30;;;;;;;48.20;21.20;;;;;;;-1.96;55.43;99395.86;124182;1105;104162;-69
2021/03/09 00:32:57;;;;;;;47.23;23.13;;;;;;;-1.96;55.98;99391.49;124264;1105;104239;-69
2021/03/09 00:35:25;;;;;;;46.30;21.73;;;;;;;-1.97;56.43;99397.59;124304;1105;104277;-69
2021/03/09 00:37:52;;;;;;;46.70;20.83;;;;;;;-1.97;55.71;99391.53;124175;1105;104277;-69
2021/03/09 00:40:20;;;;;;;43.00;19.70;;;;;;;-2.00;56.24;99394.19;124207;1106;104255;-71
2021/03/09 00:42:46;;;;;;;44.90;19.47;;;;;;;-2.01;55.66;99395.91;124305;1105;104310;-69
2021/03/09 00:45:13;;;;;;;44.88;21.25;;;;;;;-2.01;56.52;99395.06;124308;1105;104648;-70
2021/03/09 00:47:54;;;;;;;49.83;20.97;;;;;;;-2.01;55.79;99392.46;124239;1105;104179;-70
2021/03/09 00:50:21;;;;;;;49.50;23.42;;;;;;;-1.99;56.59;99393.30;124244;1105;104249;-70
2021/03/09 00:52:48;;;;;;;49.13;20.95;;;;;;;-2.01;56.25;99392.46;124245;1105;104152;-70
2021/03/09 00:55:15;;;;;;;48.65;21.75;;;;;;;-2.02;56.42;99388.98;124162;1105;104637;-70
2021/03/09 00:57:42;;;;;;;48.50;21.17;;;;;;;-2.00;55.95;99394.19;124261;1105;104509;-70
2021/03/09 01:00:10;;;;;;;45.90;20.10;;;;;;;-2.01;55.49;99395.91;124257;1104;104236;-69
2021/03/09 01:02:37;;;;;;;44.23;20.53;;;;;;;-2.00;56.48;99397.64;124249;1105;104236;-71
2021/03/09 01:05:05;;;;;;;45.85;20.17;;;;;;;-1.98;56.05;99395.87;124235;1105;104255;-70
2021/03/09 01:07:33;;;;;;;47.83;20.83;;;;;;;-1.98;56.27;99395.02;124267;1105;104310;-71
2021/03/09 01:09:59;;;;;;;41.85;18.15;;;;;;;-1.99;56.95;99396.75;124261;1105;104310;-71
2021/03/09 01:12:26;;;;;;;41.60;19.20;;;;;;;-2.02;56.57;99394.19;124245;1105;104175;-70
2021/03/09 01:14:53;;;;;;;39.30;17.57;;;;;;;-2.01;56.70;99388.09;124325;1105;104204;-70
2021/03/09 01:17:20;;;;;;;43.33;19.87;;;;;;;-2.03;56.74;99386.41;124207;1105;104541;-71
2021/03/09 01:19:47;;;;;;;40.27;19.33;;;;;;;-2.05;55.85;99389.05;124235;1105;104204;-71
2021/03/09 01:22:14;;;;;;;43.90;19.47;;;;;;;-2.03;56.32;99387.25;124222;1105;104252;-70
2021/03/09 01:24:42;;;;;;;46.95;21.60;;;;;;;-2.05;56.77;99382.97;124232;1105;104146;-70
2021/03/09 01:27:11;;;;;;;44.30;20.62;;;;;;;-2.09;56.90;99382.17;124055;1105;104715;-71
2021/03/09 01:29:39;;;;;;;42.27;17.30;;;;;;;-2.11;56.19;99384.78;124060;1105;104274;-71
2021/03/09 01:32:08;;;;;;;41.20;18.67;;;;;;;-2.18;56.13;99382.30;124223;1104;104153;-70
2021/03/09 01:34:36;;;;;;;46.10;19.55;;;;;;;-2.21;56.31;99383.20;124281;1105;104152;-71
2021/03/09 01:37:04;;;;;;;45.83;20.10;;;;;;;-2.21;57.09;99392.77;124353;1105;104254;-70
2021/03/09 01:39:31;;;;;;;48.03;21.17;;;;;;;-2.26;56.08;99383.28;124226;1105;104383;-70
2021/03/09 01:41:58;;;;;;;45.07;19.50;;;;;;;-2.28;55.96;99374.63;124242;1105;104156;-70
2021/03/09 01:44:26;;;;;;;41.30;19.07;;;;;;;-2.28;56.38;99387.66;124217;1105;104277;-70
2021/03/09 01:46:57;;;;;;;46.83;19.37;;;;;;;-2.30;56.27;99383.36;124151;1105;104179;-70
2021/03/09 01:49:31;;;;;;;47.70;19.87;;;;;;;-2.34;56.11;99381.69;124154;1105;104268;-69
2021/03/09 01:52:01;;;;;;;40.97;17.37;;;;;;;-2.35;56.52;99387.78;124617;1105;104210;-69
2021/03/09 01:54:28;;;;;;;43.30;16.87;;;;;;;-2.40;56.00;99383.49;124335;1105;104239;-69
2021/03/09 01:56:56;;;;;;;49.35;19.92;;;;;;;-2.42;56.15;99385.26;124238;1105;104177;-70
2021/03/09 01:59:25;;;;;;;45.78;21.10;;;;;;;-2.38;56.47;99390.42;124264;1104;104149;-70
2021/03/09 02:01:53;;;;;;;45.47;19.17;;;;;;;-2.37;57.06;99389.55;124370;1105;104220;-70
2021/03/09 02:04:21;;;;;;;45.83;19.87;;;;;;;-2.38;56.70;99378.24;124497;1105;104200;-70
2021/03/09 02:06:48;;;;;;;44.10;18.65;;;;;;;-2.40;56.34;99388.70;124311;1105;104153;-70
2021/03/09 02:09:16;;;;;;;48.17;20.00;;;;;;;-2.44;56.44;99384.41;124245;1105;104303;-70
2021/03/09 02:11:52;;;;;;;44.17;19.13;;;;;;;-2.50;56.86;99381.89;124212;1105;104243;-69
2021/03/09 02:14:36;;;;;;;44.47;19.80;;;;;;;-2.54;56.09;99390.63;124217;1105;104274;-70
2021/03/09 02:17:18;;;;;;;53.80;21.57;;;;;;;-2.56;56.02;99387.19;124208;1105;104312;-70
2021/03/09 02:20:17;;;;;;;45.57;19.90;;;;;;;-2.59;56.08;99387.23;124260;1105;104315;-70
2021/03/09 02:23:10;;;;;;;46.67;21.40;;;;;;;-2.59;56.47;99393.31;124188;1105;104303;-71
2021/03/09 02:26:01;;;;;;;43.40;21.00;;;;;;;-2.61;56.16;99391.59;124175;1105;104523;-70
2021/03/09 02:28:56;;;;;;;46.87;19.37;;;;;;;-2.58;56.34;99391.55;124198;1105;104149;-70
2021/03/09 02:31:29;;;;;;;39.83;17.23;;;;;;;-2.60;56.81;99395.92;124155;1106;104310;-70
2021/03/09 02:34:09;;;;;;;28.30;12.73;;;;;;;-2.61;56.50;99394.20;124246;1105;104589;-70
2021/03/09 02:36:38;;;;;;;47.47;19.20;;;;;;;-2.64;57.41;99394.23;124261;1105;104402;-70
2021/03/09 02:39:08;;;;;;;42.07;18.67;;;;;;;-2.62;56.93;99390.75;124142;1105;104306;-70
2021/03/09 02:41:44;;;;;;;38.53;17.03;;;;;;;-2.59;57.24;99400.25;123956;1105;104159;-70
2021/03/09 02:44:18;;;;;;;47.17;19.27;;;;;;;-2.58;56.50;99399.37;124173;1105;104239;-70
2021/03/09 02:46:48;;;;;;;46.07;19.30;;;;;;;-2.57;56.96;99399.36;124384;1105;104217;-70
2021/03/09 02:49:32;;;;;;;46.13;18.27;;;;;;;-2.56;56.88;99402.81;124909;1105;104230;-71
2021/03/09 02:52:01;;;;;;;45.90;19.83;;;;;;;-2.57;56.77;99401.09;124038;1105;105439;-70
2021/03/09 02:54:31;;;;;;;39.57;19.07;;;;;;;-2.56;56.89;99402.81;124252;1105;104150;-71
2021/03/09 02:57:00;;;;;;;46.27;18.73;;;;;;;-2.56;57.15;99408.91;124173;1105;104220;-70
2021/03/09 02:59:30;;;;;;;44.70;18.50;;;;;;;-2.55;57.73;99404.54;124658;1105;104152;-69
2021/03/09 03:01:58;;;;;;;44.40;18.63;;;;;;;-2.56;57.13;99414.11;124253;1105;104178;-70
2021/03/09 03:04:26;;;;;;;47.37;19.30;;;;;;;-2.60;57.62;99412.42;124212;1105;104232;-69
2021/03/09 03:06:54;;;;;;;43.97;20.10;;;;;;;-2.63;56.67;99408.98;124220;1105;104246;-69
2021/03/09 03:09:22;;;;;;;44.37;18.53;;;;;;;-2.65;57.54;99410.78;124257;1105;104255;-71
2021/03/09 03:11:50;;;;;;;42.30;19.30;;;;;;;-2.65;57.43;99409.02;124252;1105;104532;-70
2021/03/09 03:14:20;;;;;;;43.27;20.50;;;;;;;-2.66;57.12;99415.11;124294;1105;104319;-70
2021/03/09 03:16:48;;;;;;;47.03;19.77;;;;;;;-2.66;57.30;99422.08;124209;1105;104255;-70
2021/03/09 03:19:16;;;;;;;49.23;19.77;;;;;;;-2.67;57.53;99423.80;124829;1105;104245;-70
2021/03/09 03:21:44;;;;;;;47.70;19.30;;;;;;;-2.71;56.90;99403.89;124275;1105;104258;-70
2021/03/09 03:24:14;;;;;;;43.87;19.07;;;;;;;-2.72;57.67;99417.79;124248;1105;104177;-70
2021/03/09 03:26:45;;;;;;;49.20;19.93;;;;;;;-2.75;57.36;99413.50;124299;1105;104201;-70
2021/03/09 03:29:14;;;;;;;44.47;21.03;;;;;;;-2.77;57.97;99417.86;124252;1105;104245;-71
2021/03/09 03:31:41;;;;;;;45.00;19.60;;;;;;;-2.79;57.42;99417.02;124221;1105;104236;-70
2021/03/09 03:34:10;;;;;;;41.37;18.80;;;;;;;-2.82;58.06;99413.56;124208;1105;104176;-70
2021/03/09 03:36:37;;;;;;;48.20;19.17;;;;;;;-2.84;58.04;99418.81;124461;1105;104265;-70
2021/03/09 03:39:06;;;;;;;49.10;21.17;;;;;;;-2.84;57.38;99416.20;124255;1105;104192;-72
2021/03/09 03:41:34;;;;;;;45.15;19.85;;;;;;;-2.86;57.13;99412.76;124192;1105;104265;-71
2021/03/09 03:44:03;;;;;;;43.83;18.97;;;;;;;-2.88;57.06;99411.91;124285;1105;104264;-71
2021/03/09 03:46:30;;;;;;;40.03;17.77;;;;;;;-2.90;57.23;99411.95;124270;1105;104172;-70
2021/03/09 03:48:58;;;;;;;48.57;19.23;;;;;;;-2.91;57.07;99420.64;125325;1105;102123;-70
2021/03/09 03:51:35;;;;;;;47.63;19.77;;;;;;;-2.91;57.76;99419.77;124315;1105;104256;-70
2021/03/09 03:54:23;;;;;;;44.20;18.47;;;;;;;-2.93;57.84;99422.40;124274;1105;104204;-69
2021/03/09 03:57:01;;;;;;;44.03;19.07;;;;;;;-2.93;57.80;99422.40;124322;1105;104224;-70
2021/03/09 03:59:36;;;;;;;40.17;18.50;;;;;;;-2.94;58.35;99419.80;124256;1105;104256;-70
2021/03/09 04:02:16;;;;;;;42.53;18.77;;;;;;;-2.96;57.29;99427.64;124287;1105;104201;-70
2021/03/09 04:04:49;;;;;;;47.97;20.70;;;;;;;-2.94;57.75;99430.20;124207;1105;104178;-69
2021/03/09 04:07:23;;;;;;;46.27;20.63;;;;;;;-2.94;58.40;99431.09;124412;1105;104300;-70
2021/03/09 04:09:56;;;;;;;44.40;19.20;;;;;;;-2.97;57.43;99433.72;124242;1105;104274;-71
2021/03/09 04:12:28;;;;;;;34.23;14.93;;;;;;;-3.00;58.28;99431.15;124252;1105;104265;-70
2021/03/09 04:14:59;;;;;;;45.10;19.40;;;;;;;-3.00;57.62;99432.00;124237;1105;104233;-70
2021/03/09 04:17:27;;;;;;;43.93;20.93;;;;;;;-3.00;57.75;99432.00;124426;1105;104431;-71
2021/03/09 04:19:56;;;;;;;48.35;20.40;;;;;;;-3.01;57.38;99430.27;124202;1105;104155;-70
2021/03/09 04:22:27;;;;;;;47.80;21.70;;;;;;;-3.01;57.38;99429.43;124196;1105;104688;-71
2021/03/09 04:24:55;;;;;;;43.30;19.47;;;;;;;-3.01;57.88;99434.63;124252;1105;104198;-70
2021/03/09 04:27:23;;;;;;;47.07;19.70;;;;;;;-3.03;57.51;99432.03;124264;1105;104254;-70
2021/03/09 04:29:58;;;;;;;42.43;17.70;;;;;;;-3.04;57.96;99435.52;124182;1105;104338;-71
2021/03/09 04:32:26;;;;;;;39.83;14.90;;;;;;;-3.07;58.49;99430.37;124215;1105;104233;-70
2021/03/09 04:34:55;;;;;;;45.30;18.45;;;;;;;-3.14;58.21;99432.16;124264;1105;104159;-70
2021/03/09 04:37:39;;;;;;;;;;;;;;;-3.12;58.15;99426.08;124290;1105;104230;-70
2021/03/09 04:40:08;;;;;;;41.83;17.33;;;;;;;-3.11;58.42;99427.80;124293;1105;104290;-71
2021/03/09 04:42:36;;;;;;;40.30;18.37;;;;;;;-3.09;58.47;99429.52;124326;1105;104233;-69
2021/03/09 04:45:04;;;;;;;42.40;20.30;;;;;;;-3.07;58.04;99429.49;124195;1105;104146;-70
2021/03/09 04:47:33;;;;;;;43.60;19.37;;;;;;;-3.07;58.78;99430.37;124271;1105;104222;-70
2021/03/09 04:50:03;;;;;;;45.80;20.50;;;;;;;-3.09;57.74;99428.64;124206;1105;104155;-69
2021/03/09 04:52:30;;;;;;;39.53;18.23;;;;;;;-3.11;58.21;99427.80;124241;1105;104240;-69
2021/03/09 04:54:57;;;;;;;50.33;20.25;;;;;;;-3.12;57.91;99424.35;124184;1105;104855;-70
2021/03/09 04:57:44;;;;;;;43.50;20.83;;;;;;;-3.08;58.26;99430.37;124224;1105;104157;-69
2021/03/09 05:00:17;;;;;;;50.27;22.00;;;;;;;-3.05;58.34;99432.94;124164;1105;104213;-69
2021/03/09 05:02:47;;;;;;;40.37;17.13;;;;;;;-3.06;58.59;99426.02;124758;1105;104240;-70
2021/03/09 05:05:16;;;;;;;46.63;20.03;;;;;;;-3.09;58.54;99433.85;124250;1105;104236;-71
2021/03/09 05:07:44;;;;;;;50.07;21.20;;;;;;;-3.09;58.47;99433.85;124231;1105;104258;-70
2021/03/09 05:10:13;;;;;;;47.10;20.53;;;;;;;-3.08;58.41;99436.45;123964;1105;104159;-70
2021/03/09 05:12:43;;;;;;;50.67;20.87;;;;;;;-3.07;58.90;99429.49;124206;1105;104184;-71
2021/03/09 05:15:11;;;;;;;50.93;22.90;;;;;;;-3.04;58.52;99434.66;124198;1105;104248;-70
2021/03/09 05:17:39;;;;;;;49.70;21.87;;;;;;;-3.02;58.70;99440.72;124280;1104;104245;-70
2021/03/09 05:20:10;;;;;;;54.00;22.55;;;;;;;-2.99;58.57;99435.48;124708;1105;104255;-70
2021/03/09 05:22:38;;;;;;;52.93;23.87;;;;;;;-2.95;58.67;99442.38;124227;1105;104217;-72
2021/03/09 05:25:08;;;;;;;59.07;24.53;;;;;;;-2.92;58.11;99438.86;124309;1105;104243;-69
2021/03/09 05:27:35;;;;;;;57.80;24.23;;;;;;;-2.91;58.71;99443.19;124307;1105;104217;-71
2021/03/09 05:30:04;;;;;;;53.80;24.80;;;;;;;-2.90;58.13;99442.31;124089;1105;104178;-70
2021/03/09 05:32:31;;;;;;;58.30;24.87;;;;;;;-2.87;59.02;99447.48;124299;1105;104338;-70
2021/03/09 05:34:58;;;;;;;53.43;23.97;;;;;;;-2.85;58.95;99446.57;124258;1105;104229;-70
2021/03/09 05:37:25;;;;;;;60.28;24.92;;;;;;;-2.81;58.58;99447.41;124258;1105;104254;-71
2021/03/09 05:39:52;;;;;;;58.03;24.23;;;;;;;-2.77;58.45;99443.02;123891;1105;104235;-70
2021/03/09 05:42:20;;;;;;;57.63;23.73;;;;;;;-2.74;59.30;99454.28;124291;1105;104259;-72
2021/03/09 05:44:48;;;;;;;52.67;23.60;;;;;;;-2.72;58.33;99457.73;124258;1105;104258;-73
2021/03/09 05:47:15;;;;;;;56.33;25.57;;;;;;;-2.68;58.35;99450.72;124287;1105;104201;-70
2021/03/09 05:49:47;;;;;;;49.98;23.05;;;;;;;-2.67;58.78;99451.60;124266;1105;104223;-72
2021/03/09 05:52:19;;;;;;;53.27;23.03;;;;;;;-2.68;59.41;99457.69;124285;1105;104277;-71
2021/03/09 05:54:46;;;;;;;53.37;24.67;;;;;;;-2.66;58.54;99453.33;124258;1105;104146;-70
2021/03/09 05:57:13;;;;;;;54.53;25.10;;;;;;;-2.66;59.04;99464.59;124252;1105;104123;-71
2021/03/09 05:59:42;;;;;;;54.63;25.87;;;;;;;-2.66;58.89;99461.98;124108;1105;104298;-71
2021/03/09 06:02:10;;;;;;;56.50;25.33;;;;;;;-2.67;59.23;99469.83;124329;1105;105485;-70
2021/03/09 06:04:38;;;;;;;61.80;28.03;;;;;;;-2.73;58.50;99469.02;124218;1105;104214;-72
2021/03/09 06:07:05;;;;;;;63.23;28.87;;;;;;;-2.72;59.00;99481.16;124267;1105;104155;-70
2021/03/09 06:09:37;;;;;;;62.13;27.48;;;;;;;-2.74;58.27;99477.72;124197;1105;104309;-73
2021/03/09 06:12:24;;;;;;;60.10;28.50;;;;;;;-2.82;58.29;99482.14;124192;1105;104280;-73
2021/03/09 06:14:51;;;;;;;63.20;28.87;;;;;;;-2.88;59.28;99485.69;124196;1105;104181;-74
2021/03/09 06:17:25;;;;;;;61.95;27.95;;;;;;;-2.90;58.37;99489.17;124233;1105;104181;-72
2021/03/09 06:20:16;;;;;;;65.73;30.70;;;;;;;-2.93;58.73;99494.41;124296;1105;104175;-72
2021/03/09 06:22:53;;;;;;;64.97;30.17;;;;;;;-2.94;58.61;99495.28;124267;1105;104189;-73
2021/03/09 06:25:32;;;;;;;66.60;32.13;;;;;;;-2.92;58.95;99498.73;124217;1105;104192;-72
2021/03/09 06:28:02;;;;;;;66.33;30.80;;;;;;;-2.86;58.70;99496.95;124321;1105;104229;-73
2021/03/09 06:30:31;;;;;;;75.50;32.00;;;;;;;-2.80;58.61;99497.73;124270;1106;104217;-72
2021/03/09 06:32:59;;;;;;;73.10;33.27;;;;;;;-2.72;58.90;99501.12;124289;1105;104143;-72
2021/03/09 06:35:27;;;;;;;71.53;31.47;;;;;;;-2.64;59.40;99512.31;124326;1105;104302;-73
2021/03/09 06:38:15;;;;;;;61.23;28.20;;;;;;;-2.57;58.87;99516.58;124273;1105;104252;-74
2021/03/09 06:41:03;;;;;;;58.33;26.43;;;;;;;-2.50;60.06;99511.30;124300;1105;104251;-72
2021/03/09 06:43:31;;;;;;;47.30;23.47;;;;;;;-2.43;58.88;99521.61;124245;1105;104268;-73
2021/03/09 06:46:19;;;;;;;55.13;24.83;;;;;;;-2.33;59.39;99529.33;124299;1105;104169;-73
2021/03/09 06:48:50;;;;;;;51.50;22.43;;;;;;;-2.22;59.07;99532.62;124280;1105;104399;-74
2021/03/09 06:51:26;;;;;;;51.37;23.03;;;;;;;-2.14;59.16;99527.34;124225;1105;104176;-75
2021/03/09 06:54:11;;;;;;;48.13;21.30;;;;;;;-2.03;60.24;99532.40;124290;1105;104251;-74
2021/03/09 06:56:42;;;;;;;45.90;21.07;;;;;;;-1.91;59.21;99537.45;124239;1105;104289;-72
2021/03/09 06:59:21;;;;;;;41.03;19.30;;;;;;;-1.92;59.50;99533.12;124274;1105;104209;-71
2021/03/09 07:02:08;;;;;;;41.50;18.70;;;;;;;-1.88;60.22;99526.10;124298;1105;104451;-72
2021/03/09 07:04:48;;;;;;;44.13;20.20;;;;;;;-1.87;59.31;99527.83;124271;1105;104190;-73
2021/03/09 07:07:36;;;;;;;43.37;21.03;;;;;;;-1.81;60.62;99531.20;124267;1105;104251;-74
2021/03/09 07:10:06;;;;;;;43.83;20.17;;;;;;;-1.73;60.20;99525.89;124260;1105;104243;-73
2021/03/09 07:12:35;;;;;;;44.37;20.60;;;;;;;-1.67;59.46;99527.53;124261;1105;104198;-72
2021/03/09 07:15:05;;;;;;;49.20;21.43;;;;;;;-1.63;59.11;99530.97;124246;1105;104155;-72
2021/03/09 07:17:36;;;;;;;50.07;21.37;;;;;;;-1.62;59.75;99528.33;124217;1106;104323;-72
2021/03/09 07:20:15;;;;;;;45.80;20.70;;;;;;;-1.58;59.48;99534.34;123984;1105;104153;-73
2021/03/09 07:22:54;;;;;;;44.43;20.53;;;;;;;-1.51;59.66;99536.85;124263;1105;104245;-72
2021/03/09 07:25:25;;;;;;;51.73;23.50;;;;;;;-1.44;60.45;99529.78;124312;1105;104304;-73
2021/03/09 07:28:02;;;;;;;49.07;21.07;;;;;;;-1.38;60.70;99528.80;124304;1104;104306;-74
2021/03/09 07:30:37;;;;;;;44.83;21.43;;;;;;;-1.32;60.98;99533.08;124226;1105;104738;-72
2021/03/09 07:33:07;;;;;;;44.77;20.67;;;;;;;-1.26;60.05;99530.38;124289;1105;104593;-72
2021/03/09 07:35:35;;;;;;;50.77;23.67;;;;;;;-1.21;60.16;99528.52;124291;1105;104678;-73
2021/03/09 07:38:05;;;;;;;51.07;23.43;;;;;;;-1.15;59.71;99532.80;124248;1105;104219;-73
2021/03/09 07:40:35;;;;;;;44.90;22.83;;;;;;;-1.08;59.84;99519.59;124204;1105;104331;-72
2021/03/09 07:43:04;;;;;;;50.00;25.43;;;;;;;-1.01;60.88;99519.48;124236;1105;104210;-72
2021/03/09 07:45:38;;;;;;;50.70;24.23;;;;;;;-0.97;60.14;99522.00;124258;1105;104178;-73
2021/03/09 07:48:10;;;;;;;48.80;24.90;;;;;;;-0.90;60.18;99528.00;124224;1105;104162;-74
2021/03/09 07:50:40;;;;;;;51.65;26.25;;;;;;;-0.84;60.69;99522.67;124272;1105;104217;-72
2021/03/09 07:53:12;;;;;;;53.90;24.70;;;;;;;-0.84;60.73;99525.28;124238;1105;104416;-75
2021/03/09 07:55:46;;;;;;;52.63;25.90;;;;;;;-0.82;60.48;99525.23;124295;1105;104245;-75
2021/03/09 07:58:30;;;;;;;56.63;26.73;;;;;;;-0.72;60.45;99524.18;124255;1105;104184;-75
2021/03/09 08:01:00;;;;;;;;;;;;;;;-0.61;61.12;99523.97;124267;1106;104248;-72
2021/03/09 08:03:32;;;;;;;53.47;25.70;;;;;;;-0.52;60.23;99530.75;124308;1105;104236;-73
2021/03/09 08:06:02;;;;;;;46.90;22.83;;;;;;;-0.45;60.15;99532.36;124215;1105;104281;-74
2021/03/09 08:08:39;;;;;;;47.83;21.90;;;;;;;-0.44;59.92;99528.00;124222;1105;104296;-71
2021/03/09 08:11:28;;;;;;;47.53;21.77;;;;;;;-0.34;60.70;99530.39;124226;1105;104184;-72
2021/03/09 08:14:04;;;;;;;45.57;22.90;;;;;;;-0.28;60.51;99520.70;124102;1105;104617;-71
2021/03/09 08:16:40;;;;;;;47.90;22.67;;;;;;;-0.25;60.69;99531.10;124246;1105;104187;-71
2021/03/09 08:19:32;;;;;;;59.53;26.63;;;;;;;-0.17;60.46;99527.42;124270;1105;104307;-71
2021/03/09 08:22:01;;;;;;;45.77;21.07;;;;;;;-0.18;60.58;99525.70;124127;1105;104268;-73
2021/03/09 08:24:40;;;;;;;45.23;22.03;;;;;;;-0.16;60.69;99526.53;124285;1105;104178;-74
2021/03/09 08:27:31;;;;;;;46.20;23.33;;;;;;;-0.03;60.54;99527.12;124159;1105;104252;-72
2021/03/09 08:30:22;;;;;;;58.77;30.00;;;;;;;0.14;60.26;99525.89;124178;1105;104191;-73
2021/03/09 08:32:49;;;;;;;56.17;30.10;;;;;;;0.38;61.07;99531.44;124217;1105;104390;-73
2021/03/09 08:35:16;;;;;;;47.50;24.13;;;;;;;0.63;60.74;99520.37;124220;1105;104258;-73
2021/03/09 08:37:45;;;;;;;37.28;18.90;;;;;;;0.79;60.83;99529.58;124254;1105;104261;-73
2021/03/09 08:40:19;;;;;;;36.53;16.53;;;;;;;0.94;60.56;99524.86;124261;1105;104184;-74
2021/03/09 08:43:02;;;;;;;38.80;19.57;;;;;;;0.99;60.54;99526.45;124209;1105;104214;-74
2021/03/09 08:45:55;;;;;;;44.90;20.50;;;;;;;1.10;60.63;99513.05;124264;1105;104774;-74
2021/03/09 08:48:50;;;;;;;35.47;16.70;;;;;;;1.48;60.90;99513.77;124206;1105;104172;-74
2021/03/09 08:51:44;;;;;;;;;;;;;;;1.96;59.48;99508.05;124332;1105;104163;-74
2021/03/09 08:54:19;;;;;;;36.33;16.33;;;;;;;1.92;60.83;99521.26;124170;1105;104201;-75
2021/03/09 08:56:46;;;;;;;39.80;18.97;;;;;;;1.82;60.30;99511.09;124212;1105;104323;-72
2021/03/09 08:59:13;;;;;;;35.10;17.80;;;;;;;1.69;60.78;99516.69;124212;1105;104392;-75
2021/03/09 09:01:40;;;;;;;37.65;17.50;;;;;;;1.61;60.55;99516.92;124231;1106;104160;-73
2021/03/09 09:04:15;;;;;;;36.83;16.23;;;;;;;1.61;60.46;99516.92;124254;1105;104182;-72
2021/03/09 09:06:43;;;;;;;35.63;17.53;;;;;;;1.60;60.77;99509.95;124312;1105;104258;-76
2021/03/09 09:09:11;;;;;;;28.33;12.10;;;;;;;1.69;61.01;99505.33;124287;1105;104184;-72
2021/03/09 09:11:40;;;;;;;25.57;11.23;;;;;;;2.04;60.36;99506.91;124209;1105;104341;-72
2021/03/09 09:14:15;;;;;;;29.75;13.50;;;;;;;2.21;60.31;99506.37;124101;1105;104236;-75
2021/03/09 09:16:46;;;;;;;27.00;12.90;;;;;;;2.24;60.45;99502.81;124249;1105;104209;-74
2021/03/09 09:19:14;;;;;;;26.73;13.00;;;;;;;2.26;60.10;99500.13;124259;1105;104159;-75
2021/03/09 09:21:47;;;;;;;29.70;12.80;;;;;;;2.21;60.30;99503.75;124176;1105;104191;-75
2021/03/09 09:24:17;;;;;;;29.87;14.70;;;;;;;2.15;60.15;99498.69;124268;1105;104284;-73
2021/03/09 09:26:45;;;;;;;30.93;13.47;;;;;;;2.04;59.68;99506.91;124190;1105;104165;-73
2021/03/09 09:29:12;;;;;;;31.67;15.27;;;;;;;1.95;60.04;99499.30;124202;1105;104217;-73
2021/03/09 09:31:39;;;;;;;28.07;13.62;;;;;;;1.90;59.77;99503.83;124343;1104;104162;-72
2021/03/09 09:34:07;;;;;;;28.73;13.27;;;;;;;1.93;60.37;99506.36;124147;1105;104216;-73
2021/03/09 09:36:33;;;;;;;27.40;12.15;;;;;;;2.11;60.17;99507.56;123973;1105;104293;-74
2021/03/09 09:39:02;;;;;;;26.23;12.23;;;;;;;2.54;60.01;99500.10;124218;1105;104191;-72
2021/03/09 09:41:29;;;;;;;29.13;13.77;;;;;;;2.97;60.08;99496.03;124161;1105;104226;-73
2021/03/09 09:43:57;;;;;;;28.13;13.60;;;;;;;3.28;61.11;99496.70;124186;1105;104583;-73
2021/03/09 09:46:28;;;;;;;25.63;13.10;;;;;;;3.39;60.03;99499.81;124324;1106;104184;-74
2021/03/09 09:48:59;;;;;;;26.27;11.00;;;;;;;3.54;59.78;99501.02;124275;1105;104227;-72
2021/03/09 09:51:28;;;;;;;27.90;11.10;;;;;;;3.48;59.80;99501.23;124008;1106;104351;-73
2021/03/09 09:53:58;;;;;;;23.77;10.20;;;;;;;3.42;60.16;99506.75;124266;1105;104214;-72
2021/03/09 09:56:27;;;;;;;25.50;10.93;;;;;;;3.43;60.42;99501.41;124181;1105;104201;-72
2021/03/09 09:58:57;;;;;;;27.57;11.00;;;;;;;3.46;60.13;99502.22;124324;1105;104153;-72
2021/03/09 10:01:36;;;;;;;21.70;8.90;;;;;;;3.52;59.73;99502.00;124338;1105;104239;-72
2021/03/09 10:04:07;;;;;;;23.20;9.73;;;;;;;3.56;60.28;99504.45;124189;1105;104345;-71
2021/03/09 10:06:41;;;;;;;23.77;10.17;;;;;;;3.52;60.09;99504.63;124247;1105;104261;-70
2021/03/09 10:09:24;;;;;;;25.87;9.43;;;;;;;3.44;59.95;99499.66;124222;1105;104222;-71
2021/03/09 10:12:01;;;;;;;20.33;8.60;;;;;;;3.19;59.88;99495.27;124248;1105;104261;-72
2021/03/09 10:14:32;;;;;;;24.37;10.37;;;;;;;3.03;59.62;99489.69;124129;1105;104751;-73
2021/03/09 10:17:02;;;;;;;48.10;24.10;;;;;;;3.07;59.75;99487.80;123966;1105;104185;-72
2021/03/09 10:19:38;;;;;;;27.07;10.00;;;;;;;3.33;60.07;99494.77;124281;1105;104252;-72
2021/03/09 10:22:25;;;;;;;21.50;8.83;;;;;;;3.49;59.87;99491.59;124307;1105;104258;-72
2021/03/09 10:25:07;;;;;;;21.97;8.60;;;;;;;3.76;59.58;99486.20;124280;1105;104179;-72
2021/03/09 10:27:35;;;;;;;17.93;7.33;;;;;;;3.84;59.42;99492.91;124216;1105;104288;-72
2021/03/09 10:30:05;;;;;;;19.20;7.00;;;;;;;3.83;59.32;99492.95;124231;1106;104233;-71
2021/03/09 10:32:50;;;;;;;20.45;7.50;;;;;;;3.90;59.76;99491.80;124261;1105;104259;-75
2021/03/09 10:35:18;;;;;;;19.03;7.07;;;;;;;3.93;59.61;99494.32;124185;1105;104239;-72
2021/03/09 10:37:44;;;;;;;22.43;7.57;;;;;;;3.90;59.71;99490.93;123980;1106;104207;-74
2021/03/09 10:40:14;;;;;;;19.83;7.60;;;;;;;3.69;58.84;99491.69;124263;1105;104181;-76
2021/03/09 10:42:42;;;;;;;17.97;6.70;;;;;;;3.39;58.94;99485.81;124221;1105;104155;-74
2021/03/09 10:45:15;;;;;;;18.30;6.67;;;;;;;3.15;58.58;99490.18;124244;1105;104223;-71
2021/03/09 10:48:03;;;;;;;18.40;6.10;;;;;;;2.89;58.98;99492.80;124139;1105;104267;-69
2021/03/09 10:50:42;;;;;;;18.00;6.70;;;;;;;2.65;58.41;99494.48;124200;1105;104233;-73
2021/03/09 10:53:09;;;;;;;16.03;6.33;;;;;;;2.47;59.07;99491.55;124278;1105;104158;-74
2021/03/09 10:55:37;;;;;;;17.13;5.63;;;;;;;2.54;58.82;99486.97;124081;1105;104166;-71
2021/03/09 10:58:05;;;;;;;16.60;5.93;;;;;;;2.79;58.58;99483.52;124195;1105;104284;-72
2021/03/09 11:00:32;;;;;;;20.53;7.20;;;;;;;3.10;58.84;99479.81;124085;1105;104230;-71
2021/03/09 11:02:59;;;;;;;18.17;6.30;;;;;;;3.27;58.62;99473.95;124261;1105;104213;-70
2021/03/09 11:05:27;;;;;;;24.77;9.00;;;;;;;3.34;58.91;99477.23;124358;1105;104168;-69
2021/03/09 11:07:54;;;;;;;20.23;6.97;;;;;;;3.58;58.72;99472.84;124452;1105;104718;-70
2021/03/09 11:10:21;;;;;;;20.17;6.65;;;;;;;3.85;59.17;99468.31;124234;1105;104248;-70
2021/03/09 11:12:49;;;;;;;18.30;5.90;;;;;;;4.08;58.35;99471.80;124233;1105;104248;-71
2021/03/09 11:15:16;;;;;;;16.42;5.78;;;;;;;4.15;58.40;99464.51;124244;1105;104236;-71
2021/03/09 11:17:44;;;;;;;17.93;5.90;;;;;;;4.27;58.37;99464.02;124348;1105;104299;-72
2021/03/09 11:20:12;;;;;;;17.23;6.10;;;;;;;4.44;58.37;99467.77;124294;1105;104249;-71
2021/03/09 11:22:39;;;;;;;15.20;5.90;;;;;;;4.49;58.68;99463.12;124283;1105;104249;-71
2021/03/09 11:25:24;;;;;;;18.27;5.93;;;;;;;4.44;58.14;99468.59;124322;1105;104248;-73